Friday, May 25, 2018, 11:54 AM CDT
Back to Local

KDKB, De Kalb, De Kalb Taylor Municipal Airport

Location: Dekalb, IL, United States Lat: 41.932
Local Time: 11:54 AM CDT (16:54 GMT) Lon: -88.708
Time Zone: US/Central Elev: 915 ft

Show me the last for .
Show Coded

Time T Td Feel RH Dir Speed Gust Alt SLP Vis Weather Sky Remarks
2018-05-25 11:35 83 64 85 51 210° 10 16 29.93 - 10 CLR None
2018-05-25 11:15 83 64 85 53 240° 12 - 29.94 - 10 CLR None
2018-05-25 10:55 82 64 84 54 230° 10 - 29.94 - 10 CLR None
2018-05-25 10:35 81 64 83 56 220° 12 - 29.94 - 10 CLR None
2018-05-25 10:15 80 64 82 58 220° 10 - 29.94 - 10 CLR None
2018-05-25 09:55 80 65 82 60 230° 13 - 29.95 - 10 CLR None
2018-05-25 09:35 79 65 81 62 210° 9 - 29.96 - 10 CLR None
2018-05-25 09:15 77 65 80 66 200° 8 - 29.96 - 10 CLR None
2018-05-25 08:55 76 64 79 67 190° 7 - 29.96 - 10 CLR None
2018-05-25 08:35 74 63 77 69 200° 8 - 29.96 - 10 CLR None
2018-05-25 08:15 72 63 76 72 180° 8 - 29.97 - 10 CLR None
2018-05-25 07:55 71 62 76 73 190° 8 - 29.97 - 10 CLR None
2018-05-25 07:35 69 61 - 75 200° 6 - 29.97 - 10 CLR None
2018-05-25 07:15 68 60 - 76 190° 6 - 29.96 - 10 CLR None
2018-05-25 06:55 66 60 - 80 190° 6 - 29.96 - 10 CLR 6-hr Min Temp (7am): 60.1°F
6-hr Max Temp (7am): 67.6°F
2018-05-25 06:35 64 59 - 84 190° 7 - 29.96 - 10 CLR None
2018-05-25 06:15 61 58 - 87 190° 7 - 29.97 - 10 CLR None
2018-05-25 05:55 61 57 - 86 180° 7 - 29.97 - 10 CLR None
2018-05-25 05:35 60 56 - 87 180° 7 - 29.97 - 10 CLR None
2018-05-25 05:15 61 56 - 83 190° 6 - 29.97 - 10 CLR None
2018-05-25 04:55 62 56 - 81 180° 7 - 29.98 - 10 CLR None
2018-05-25 04:35 62 56 - 80 180° 8 - 29.98 - 10 CLR None
2018-05-25 04:15 62 56 - 80 180° 7 - 29.99 - 10 CLR None
2018-05-25 03:55 62 56 - 79 180° 8 - 29.99 - 10 CLR None
2018-05-25 03:35 63 56 - 76 170° 8 - 30.00 - 10 CLR None
2018-05-25 03:15 64 55 - 74 170° 8 - 30.00 - 10 CLR None
2018-05-25 02:55 63 55 - 76 160° 7 - 30.01 - 10 CLR None
2018-05-25 02:35 63 56 - 77 170° 7 - 30.01 - 10 CLR None
2018-05-25 02:15 64 56 - 75 170° 7 - 30.01 - 10 CLR None
2018-05-25 01:55 67 55 - 66 170° 8 - 30.01 - 10 CLR None
2018-05-25 01:35 67 56 - 66 160° 8 - 30.01 - 10 CLR None
2018-05-25 01:15 67 56 - 68 160° 7 - 30.02 - 10 CLR None
2018-05-25 00:55 68 56 - 65 160° 7 - 30.03 - 10 CLR 6-hr Min Temp (1am): 67.6°F
6-hr Max Temp (1am): 80.1°F
24-hr Min Temp (1am): 57.6°F
24-hr Max Temp (1am): 84.2°F
2018-05-25 00:35 68 56 - 64 160° 7 - 30.04 - 10 CLR None
2018-05-25 00:15 70 56 - 61 160° 7 - 30.04 - 10 CLR None
2018-05-24 23:55 71 56 76 60 150° 8 - 30.04 - 10 CLR None
2018-05-24 23:35 71 57 76 62 150° 8 - 30.04 - 10 CLR None
2018-05-24 23:15 71 57 76 60 150° 7 - 30.04 - 10 CLR None
2018-05-24 22:55 71 58 76 63 150° 8 - 30.04 - 10 CLR None
2018-05-24 22:35 72 57 76 59 150° 8 - 30.04 - 10 CLR None
2018-05-24 22:15 74 57 77 55 140° 8 - 30.04 - 10 CLR None
2018-05-24 21:55 73 57 77 57 140° 8 - 30.04 - 10 CLR None
2018-05-24 21:35 74 58 77 57 140° 7 - 30.04 - 10 CLR None
2018-05-24 21:15 74 58 77 57 140° 7 - 30.04 - 10 CLR None
2018-05-24 20:55 74 58 77 57 130° 6 - 30.04 - 10 CLR None
2018-05-24 20:35 76 58 78 55 150° 6 - 30.04 - 10 CLR None
2018-05-24 20:15 77 59 79 52 150° 5 - 30.04 - 10 CLR None
2018-05-24 19:55 78 59 80 52 160° 5 - 30.04 - 10 CLR None
2018-05-24 19:35 78 60 80 52 160° 6 - 30.04 - 10 CLR None
2018-05-24 19:15 79 61 81 53 170° 6 - 30.04 - 10 CLR None
2018-05-24 18:55 80 60 81 51 170° 7 - 30.04 - 10 CLR 6-hr Min Temp (7pm): 79.9°F
6-hr Max Temp (7pm): 84.2°F
2018-05-24 18:35 82 60 83 48 200° 8 - 30.05 - 10 CLR None
2018-05-24 18:15 82 60 83 47 170° 8 - 30.05 - 10 CLR None
2018-05-24 17:55 83 61 84 47 180° 6 - 30.06 - 10 CLR None
2018-05-24 17:35 83 61 84 47 170° 7 - 30.07 - 10 CLR None
2018-05-24 17:15 83 61 84 46 210° 7 - 30.07 - 10 CLR None
2018-05-24 16:55 83 60 84 46 190° 3 - 30.08 - 10 CLR None
2018-05-24 16:35 84 62 85 46 180° 8 - 30.09 - 10 CLR None
2018-05-24 16:15 83 61 84 47 200° 6 - 30.09 - 10 CLR None
2018-05-24 15:55 84 61 85 46 190° 9 - 30.10 - 10 CLR None
2018-05-24 15:35 84 61 85 46 210° 7 - 30.11 - 10 CLR None
2018-05-24 15:15 83 60 84 45 160° 10 - 30.11 - 10 CLR None
2018-05-24 14:55 83 62 84 48 210° 9 - 30.12 - 10 CLR None
2018-05-24 14:35 83 61 84 48 160° 8 - 30.13 - 10 CLR None
2018-05-24 14:15 83 61 84 48 190° 10 - 30.13 - 10 CLR None
2018-05-24 13:55 82 61 83 48 180° 8 - 30.14 - 10 CLR None
2018-05-24 13:35 82 62 83 50 200° 6 - 30.14 - 10 CLR None
2018-05-24 13:15 82 61 83 49 170° 6 9 30.15 - 10 CLR None
2018-05-24 12:55 81 61 82 50 170° 12 16 30.16 - 10 CLR 6-hr Min Temp (1pm): 63.5°F
6-hr Max Temp (1pm): 81.3°F
2018-05-24 12:35 81 62 82 52 180° 9 - 30.16 - 10 CLR None
2018-05-24 12:15 80 62 81 54 170° 12 - 30.17 - 10 CLR None
2018-05-24 11:55 79 62 81 56 190° 12 - 30.18 - 10 CLR None

Support USWX by starting your Amazon purchase here.